Terminal Aerodrome Forecast
Issued by NWS Lake Charles, LA

Home | Current Version | Previous Version | Text Only | Print | Product List | Glossary On
Versions: 1 2 3 4 5 6 7 8 9 10 11 12 13 14 15 16 17 18 19 20 21 22 23 24 25 26 27 28 29 30 31 32
000
FTUS44 KLCH 221122
TAFBPT
TAF
KBPT 221122Z 2212/2312 28007KT P6SM SKC
     FM221500 28022G32KT P6SM SKC
     FM222200 30022G30KT P6SM BKN050
     FM230900 31010KT P6SM SKC=

USA.gov is the U.S. government's official web portal to all federal, state and local government web resources and services.